sensor_id;sensor_type;location;lat;lon;timestamp;P1;durP1;ratioP1;P2;durP2;ratioP2
15412;SDS011;7805;49.554;7.632;2023-07-29T00:00:26;2.30;;;2.10;;
15412;SDS011;7805;49.554;7.632;2023-07-29T00:02:53;8.77;;;2.40;;
15412;SDS011;7805;49.554;7.632;2023-07-29T00:05:18;3.33;;;2.30;;
15412;SDS011;7805;49.554;7.632;2023-07-29T00:07:44;2.50;;;2.30;;
15412;SDS011;7805;49.554;7.632;2023-07-29T00:10:09;6.07;;;2.37;;
15412;SDS011;7805;49.554;7.632;2023-07-29T00:12:35;2.80;;;2.10;;
15412;SDS011;7805;49.554;7.632;2023-07-29T00:15:00;5.63;;;2.13;;
15412;SDS011;7805;49.554;7.632;2023-07-29T00:17:26;5.87;;;2.43;;
15412;SDS011;7805;49.554;7.632;2023-07-29T00:19:51;6.37;;;2.67;;
15412;SDS011;7805;49.554;7.632;2023-07-29T00:22:17;7.67;;;2.67;;
15412;SDS011;7805;49.554;7.632;2023-07-29T00:24:42;4.67;;;2.50;;
15412;SDS011;7805;49.554;7.632;2023-07-29T00:27:08;7.70;;;2.57;;
15412;SDS011;7805;49.554;7.632;2023-07-29T00:29:34;3.83;;;2.40;;
15412;SDS011;7805;49.554;7.632;2023-07-29T00:31:59;6.20;;;3.20;;
15412;SDS011;7805;49.554;7.632;2023-07-29T00:34:25;9.07;;;3.80;;
15412;SDS011;7805;49.554;7.632;2023-07-29T00:36:50;4.27;;;3.10;;
15412;SDS011;7805;49.554;7.632;2023-07-29T00:39:16;7.67;;;3.20;;
15412;SDS011;7805;49.554;7.632;2023-07-29T00:41:41;3.97;;;2.73;;
15412;SDS011;7805;49.554;7.632;2023-07-29T00:44:07;6.30;;;2.70;;
15412;SDS011;7805;49.554;7.632;2023-07-29T00:46:33;2.87;;;2.63;;
15412;SDS011;7805;49.554;7.632;2023-07-29T00:49:01;5.30;;;2.87;;
15412;SDS011;7805;49.554;7.632;2023-07-29T00:51:27;4.07;;;2.73;;
15412;SDS011;7805;49.554;7.632;2023-07-29T00:53:52;4.50;;;2.10;;
15412;SDS011;7805;49.554;7.632;2023-07-29T00:56:18;3.60;;;2.43;;
15412;SDS011;7805;49.554;7.632;2023-07-29T00:58:44;2.80;;;2.60;;
15412;SDS011;7805;49.554;7.632;2023-07-29T01:01:10;3.27;;;2.97;;
15412;SDS011;7805;49.554;7.632;2023-07-29T01:03:36;3.83;;;2.80;;
15412;SDS011;7805;49.554;7.632;2023-07-29T01:06:08;4.63;;;2.93;;
15412;SDS011;7805;49.554;7.632;2023-07-29T01:08:51;4.63;;;3.17;;
15412;SDS011;7805;49.554;7.632;2023-07-29T01:13:58;3.37;;;2.97;;
15412;SDS011;7805;49.554;7.632;2023-07-29T01:16:39;4.30;;;3.07;;
15412;SDS011;7805;49.554;7.632;2023-07-29T01:19:08;8.93;;;3.30;;
15412;SDS011;7805;49.554;7.632;2023-07-29T01:21:50;4.07;;;3.70;;
15412;SDS011;7805;49.554;7.632;2023-07-29T01:24:16;7.50;;;3.50;;
15412;SDS011;7805;49.554;7.632;2023-07-29T01:26:42;3.30;;;3.10;;
15412;SDS011;7805;49.554;7.632;2023-07-29T01:29:07;3.47;;;2.90;;
15412;SDS011;7805;49.554;7.632;2023-07-29T01:31:34;6.37;;;2.93;;
15412;SDS011;7805;49.554;7.632;2023-07-29T01:36:42;4.27;;;3.23;;
15412;SDS011;7805;49.554;7.632;2023-07-29T01:39:10;7.60;;;2.73;;
15412;SDS011;7805;49.554;7.632;2023-07-29T01:41:37;8.67;;;2.93;;
15412;SDS011;7805;49.554;7.632;2023-07-29T01:44:02;5.67;;;2.80;;
15412;SDS011;7805;49.554;7.632;2023-07-29T01:46:29;5.93;;;3.17;;
15412;SDS011;7805;49.554;7.632;2023-07-29T01:48:56;3.57;;;2.67;;
15412;SDS011;7805;49.554;7.632;2023-07-29T01:51:22;4.47;;;3.10;;
15412;SDS011;7805;49.554;7.632;2023-07-29T01:53:48;5.07;;;2.97;;
15412;SDS011;7805;49.554;7.632;2023-07-29T01:56:13;2.77;;;2.57;;
15412;SDS011;7805;49.554;7.632;2023-07-29T01:58:39;3.30;;;2.77;;
15412;SDS011;7805;49.554;7.632;2023-07-29T02:01:04;2.90;;;2.60;;
15412;SDS011;7805;49.554;7.632;2023-07-29T02:03:30;2.90;;;2.70;;
15412;SDS011;7805;49.554;7.632;2023-07-29T02:05:55;2.60;;;2.50;;
15412;SDS011;7805;49.554;7.632;2023-07-29T02:08:21;3.93;;;3.13;;
15412;SDS011;7805;49.554;7.632;2023-07-29T02:10:46;2.87;;;2.30;;
15412;SDS011;7805;49.554;7.632;2023-07-29T02:13:13;4.23;;;2.40;;
15412;SDS011;7805;49.554;7.632;2023-07-29T02:15:39;4.00;;;2.70;;
15412;SDS011;7805;49.554;7.632;2023-07-29T02:18:04;2.80;;;2.57;;
15412;SDS011;7805;49.554;7.632;2023-07-29T02:20:31;6.63;;;3.10;;
15412;SDS011;7805;49.554;7.632;2023-07-29T02:22:57;3.17;;;2.47;;
15412;SDS011;7805;49.554;7.632;2023-07-29T02:25:22;4.27;;;2.37;;
15412;SDS011;7805;49.554;7.632;2023-07-29T02:27:48;3.80;;;2.90;;
15412;SDS011;7805;49.554;7.632;2023-07-29T02:30:13;6.67;;;3.30;;
15412;SDS011;7805;49.554;7.632;2023-07-29T02:32:39;5.43;;;2.70;;
15412;SDS011;7805;49.554;7.632;2023-07-29T02:35:05;2.73;;;2.53;;
15412;SDS011;7805;49.554;7.632;2023-07-29T02:37:30;4.97;;;2.60;;
15412;SDS011;7805;49.554;7.632;2023-07-29T02:39:56;3.03;;;2.83;;
15412;SDS011;7805;49.554;7.632;2023-07-29T02:42:21;2.57;;;2.40;;
15412;SDS011;7805;49.554;7.632;2023-07-29T02:44:47;5.20;;;2.50;;
15412;SDS011;7805;49.554;7.632;2023-07-29T02:47:12;5.63;;;2.47;;
15412;SDS011;7805;49.554;7.632;2023-07-29T02:49:38;5.40;;;2.23;;
15412;SDS011;7805;49.554;7.632;2023-07-29T02:52:04;4.27;;;2.30;;
15412;SDS011;7805;49.554;7.632;2023-07-29T02:54:30;2.60;;;2.33;;
15412;SDS011;7805;49.554;7.632;2023-07-29T02:56:55;3.30;;;2.80;;
15412;SDS011;7805;49.554;7.632;2023-07-29T02:59:21;3.70;;;2.33;;
15412;SDS011;7805;49.554;7.632;2023-07-29T03:01:46;5.00;;;2.17;;
15412;SDS011;7805;49.554;7.632;2023-07-29T03:04:12;3.00;;;2.60;;
15412;SDS011;7805;49.554;7.632;2023-07-29T03:06:40;4.97;;;2.03;;
15412;SDS011;7805;49.554;7.632;2023-07-29T03:09:06;3.40;;;2.03;;
15412;SDS011;7805;49.554;7.632;2023-07-29T03:11:31;2.93;;;2.10;;
15412;SDS011;7805;49.554;7.632;2023-07-29T03:13:57;4.90;;;2.20;;
15412;SDS011;7805;49.554;7.632;2023-07-29T03:16:22;3.03;;;2.27;;
15412;SDS011;7805;49.554;7.632;2023-07-29T03:18:48;2.50;;;2.30;;
15412;SDS011;7805;49.554;7.632;2023-07-29T03:21:14;3.23;;;1.97;;
15412;SDS011;7805;49.554;7.632;2023-07-29T03:23:40;3.67;;;2.10;;
15412;SDS011;7805;49.554;7.632;2023-07-29T03:26:05;2.60;;;1.90;;
15412;SDS011;7805;49.554;7.632;2023-07-29T03:28:35;4.07;;;1.57;;
15412;SDS011;7805;49.554;7.632;2023-07-29T03:31:06;4.77;;;2.00;;
15412;SDS011;7805;49.554;7.632;2023-07-29T03:33:32;2.63;;;1.70;;
15412;SDS011;7805;49.554;7.632;2023-07-29T03:35:58;2.87;;;1.80;;
15412;SDS011;7805;49.554;7.632;2023-07-29T03:38:24;4.50;;;2.10;;
15412;SDS011;7805;49.554;7.632;2023-07-29T03:40:50;3.77;;;1.93;;
15412;SDS011;7805;49.554;7.632;2023-07-29T03:43:16;4.27;;;2.10;;
15412;SDS011;7805;49.554;7.632;2023-07-29T03:45:41;3.80;;;1.53;;
15412;SDS011;7805;49.554;7.632;2023-07-29T03:48:07;2.30;;;2.10;;
15412;SDS011;7805;49.554;7.632;2023-07-29T03:50:33;3.73;;;1.90;;
15412;SDS011;7805;49.554;7.632;2023-07-29T03:53:01;4.30;;;1.80;;
15412;SDS011;7805;49.554;7.632;2023-07-29T03:55:30;2.37;;;1.80;;
15412;SDS011;7805;49.554;7.632;2023-07-29T03:57:56;3.73;;;2.23;;
15412;SDS011;7805;49.554;7.632;2023-07-29T04:00:22;5.60;;;1.67;;
15412;SDS011;7805;49.554;7.632;2023-07-29T04:02:48;2.80;;;2.10;;
15412;SDS011;7805;49.554;7.632;2023-07-29T04:05:14;4.10;;;2.10;;
15412;SDS011;7805;49.554;7.632;2023-07-29T04:07:39;3.43;;;2.00;;
15412;SDS011;7805;49.554;7.632;2023-07-29T04:10:05;1.90;;;1.80;;
15412;SDS011;7805;49.554;7.632;2023-07-29T04:12:31;5.07;;;2.10;;
15412;SDS011;7805;49.554;7.632;2023-07-29T04:14:57;6.93;;;2.07;;
15412;SDS011;7805;49.554;7.632;2023-07-29T04:17:23;2.80;;;1.80;;
15412;SDS011;7805;49.554;7.632;2023-07-29T04:19:48;2.10;;;2.00;;
15412;SDS011;7805;49.554;7.632;2023-07-29T04:22:15;3.30;;;2.57;;
15412;SDS011;7805;49.554;7.632;2023-07-29T04:24:41;11.47;;;5.27;;
15412;SDS011;7805;49.554;7.632;2023-07-29T04:27:07;10.80;;;8.70;;
15412;SDS011;7805;49.554;7.632;2023-07-29T04:29:32;12.43;;;8.50;;
15412;SDS011;7805;49.554;7.632;2023-07-29T04:32:00;9.47;;;8.30;;
15412;SDS011;7805;49.554;7.632;2023-07-29T04:34:26;8.30;;;6.87;;
15412;SDS011;7805;49.554;7.632;2023-07-29T04:36:52;4.93;;;3.90;;
15412;SDS011;7805;49.554;7.632;2023-07-29T04:39:17;3.57;;;3.27;;
15412;SDS011;7805;49.554;7.632;2023-07-29T04:41:43;4.63;;;3.27;;
15412;SDS011;7805;49.554;7.632;2023-07-29T04:44:08;6.57;;;3.60;;
15412;SDS011;7805;49.554;7.632;2023-07-29T04:46:35;12.57;;;3.93;;
15412;SDS011;7805;49.554;7.632;2023-07-29T04:49:01;4.80;;;2.93;;
15412;SDS011;7805;49.554;7.632;2023-07-29T04:51:27;3.90;;;3.30;;
15412;SDS011;7805;49.554;7.632;2023-07-29T04:53:53;8.93;;;7.80;;
15412;SDS011;7805;49.554;7.632;2023-07-29T04:56:19;11.13;;;8.57;;
15412;SDS011;7805;49.554;7.632;2023-07-29T04:58:44;8.90;;;6.20;;
15412;SDS011;7805;49.554;7.632;2023-07-29T05:01:10;5.13;;;4.70;;
15412;SDS011;7805;49.554;7.632;2023-07-29T05:03:36;4.50;;;3.40;;
15412;SDS011;7805;49.554;7.632;2023-07-29T05:06:02;5.95;;;3.30;;
15412;SDS011;7805;49.554;7.632;2023-07-29T05:08:27;3.77;;;3.43;;
15412;SDS011;7805;49.554;7.632;2023-07-29T05:10:53;3.70;;;2.90;;
15412;SDS011;7805;49.554;7.632;2023-07-29T05:13:19;3.23;;;2.80;;
15412;SDS011;7805;49.554;7.632;2023-07-29T05:15:46;4.95;;;3.03;;
15412;SDS011;7805;49.554;7.632;2023-07-29T05:18:12;5.43;;;4.57;;
15412;SDS011;7805;49.554;7.632;2023-07-29T05:20:38;6.40;;;5.43;;
15412;SDS011;7805;49.554;7.632;2023-07-29T05:23:03;5.65;;;5.10;;
15412;SDS011;7805;49.554;7.632;2023-07-29T05:25:29;10.80;;;3.60;;
15412;SDS011;7805;49.554;7.632;2023-07-29T05:27:54;5.37;;;3.17;;
15412;SDS011;7805;49.554;7.632;2023-07-29T05:30:20;3.33;;;2.93;;
15412;SDS011;7805;49.554;7.632;2023-07-29T05:32:45;3.07;;;2.77;;
15412;SDS011;7805;49.554;7.632;2023-07-29T05:35:11;2.90;;;2.70;;
15412;SDS011;7805;49.554;7.632;2023-07-29T05:37:40;4.03;;;3.67;;
15412;SDS011;7805;49.554;7.632;2023-07-29T05:40:06;4.93;;;4.53;;
15412;SDS011;7805;49.554;7.632;2023-07-29T05:42:33;4.00;;;3.70;;
15412;SDS011;7805;49.554;7.632;2023-07-29T05:44:58;6.75;;;3.65;;
15412;SDS011;7805;49.554;7.632;2023-07-29T05:47:24;5.97;;;3.53;;
15412;SDS011;7805;49.554;7.632;2023-07-29T05:49:50;4.57;;;3.78;;
15412;SDS011;7805;49.554;7.632;2023-07-29T05:52:15;5.15;;;3.45;;
15412;SDS011;7805;49.554;7.632;2023-07-29T05:54:41;4.72;;;3.83;;
15412;SDS011;7805;49.554;7.632;2023-07-29T05:57:08;5.38;;;4.20;;
15412;SDS011;7805;49.554;7.632;2023-07-29T05:59:37;3.72;;;3.47;;
15412;SDS011;7805;49.554;7.632;2023-07-29T06:02:03;3.42;;;3.22;;
15412;SDS011;7805;49.554;7.632;2023-07-29T06:04:29;3.53;;;3.15;;
15412;SDS011;7805;49.554;7.632;2023-07-29T06:06:55;3.65;;;3.40;;
15412;SDS011;7805;49.554;7.632;2023-07-29T06:09:21;3.17;;;2.97;;
15412;SDS011;7805;49.554;7.632;2023-07-29T06:11:47;5.55;;;3.88;;
15412;SDS011;7805;49.554;7.632;2023-07-29T06:14:12;5.25;;;2.90;;
15412;SDS011;7805;49.554;7.632;2023-07-29T06:16:38;9.10;;;3.25;;
15412;SDS011;7805;49.554;7.632;2023-07-29T06:19:04;3.15;;;2.88;;
15412;SDS011;7805;49.554;7.632;2023-07-29T06:21:29;8.98;;;3.90;;
15412;SDS011;7805;49.554;7.632;2023-07-29T06:23:55;4.45;;;3.70;;
15412;SDS011;7805;49.554;7.632;2023-07-29T06:26:21;4.80;;;3.63;;
15412;SDS011;7805;49.554;7.632;2023-07-29T06:28:46;5.18;;;3.05;;
15412;SDS011;7805;49.554;7.632;2023-07-29T06:31:12;4.40;;;2.70;;
15412;SDS011;7805;49.554;7.632;2023-07-29T06:33:37;4.88;;;2.17;;
15412;SDS011;7805;49.554;7.632;2023-07-29T06:36:03;5.20;;;2.47;;
15412;SDS011;7805;49.554;7.632;2023-07-29T06:38:29;8.40;;;2.40;;
15412;SDS011;7805;49.554;7.632;2023-07-29T06:40:55;8.60;;;6.80;;
15412;SDS011;7805;49.554;7.632;2023-07-29T06:43:20;4.97;;;2.70;;
15412;SDS011;7805;49.554;7.632;2023-07-29T06:45:46;2.47;;;1.58;;
15412;SDS011;7805;49.554;7.632;2023-07-29T06:48:12;8.73;;;2.33;;
15412;SDS011;7805;49.554;7.632;2023-07-29T06:50:37;2.78;;;1.10;;
15412;SDS011;7805;49.554;7.632;2023-07-29T06:53:03;6.22;;;2.33;;
15412;SDS011;7805;49.554;7.632;2023-07-29T06:55:28;3.53;;;1.60;;
15412;SDS011;7805;49.554;7.632;2023-07-29T06:57:54;7.38;;;2.75;;
15412;SDS011;7805;49.554;7.632;2023-07-29T07:00:20;10.10;;;3.60;;
15412;SDS011;7805;49.554;7.632;2023-07-29T07:02:45;4.27;;;2.30;;
15412;SDS011;7805;49.554;7.632;2023-07-29T07:05:11;3.63;;;1.90;;
15412;SDS011;7805;49.554;7.632;2023-07-29T07:07:36;3.33;;;1.50;;
15412;SDS011;7805;49.554;7.632;2023-07-29T07:10:03;5.33;;;1.97;;
15412;SDS011;7805;49.554;7.632;2023-07-29T07:12:28;6.13;;;1.40;;
15412;SDS011;7805;49.554;7.632;2023-07-29T07:14:54;4.53;;;1.80;;
15412;SDS011;7805;49.554;7.632;2023-07-29T07:17:19;3.55;;;2.20;;
15412;SDS011;7805;49.554;7.632;2023-07-29T07:19:45;2.80;;;2.60;;
15412;SDS011;7805;49.554;7.632;2023-07-29T07:22:11;1.60;;;1.50;;
15412;SDS011;7805;49.554;7.632;2023-07-29T07:24:37;3.23;;;1.20;;
15412;SDS011;7805;49.554;7.632;2023-07-29T07:27:02;1.53;;;1.13;;
15412;SDS011;7805;49.554;7.632;2023-07-29T07:29:28;1.90;;;1.70;;
15412;SDS011;7805;49.554;7.632;2023-07-29T07:31:55;0.95;;;0.95;;
15412;SDS011;7805;49.554;7.632;2023-07-29T07:34:21;1.33;;;0.80;;
15412;SDS011;7805;49.554;7.632;2023-07-29T07:36:47;1.88;;;1.10;;
15412;SDS011;7805;49.554;7.632;2023-07-29T07:39:12;2.50;;;1.20;;
15412;SDS011;7805;49.554;7.632;2023-07-29T07:41:38;2.00;;;0.93;;
15412;SDS011;7805;49.554;7.632;2023-07-29T07:44:04;0.93;;;0.60;;
15412;SDS011;7805;49.554;7.632;2023-07-29T07:46:29;0.57;;;0.57;;
15412;SDS011;7805;49.554;7.632;2023-07-29T07:48:55;1.63;;;0.70;;
15412;SDS011;7805;49.554;7.632;2023-07-29T07:51:21;3.10;;;0.80;;
15412;SDS011;7805;49.554;7.632;2023-07-29T07:53:46;1.60;;;0.70;;
15412;SDS011;7805;49.554;7.632;2023-07-29T07:56:13;1.70;;;0.90;;
15412;SDS011;7805;49.554;7.632;2023-07-29T07:58:40;1.95;;;0.70;;
15412;SDS011;7805;49.554;7.632;2023-07-29T08:01:06;0.90;;;0.70;;
15412;SDS011;7805;49.554;7.632;2023-07-29T08:03:32;4.35;;;0.90;;
15412;SDS011;7805;49.554;7.632;2023-07-29T08:05:58;0.70;;;0.70;;
15412;SDS011;7805;49.554;7.632;2023-07-29T08:08:25;2.13;;;0.70;;
15412;SDS011;7805;49.554;7.632;2023-07-29T08:10:52;0.95;;;0.95;;
15412;SDS011;7805;49.554;7.632;2023-07-29T08:13:19;2.13;;;1.00;;
15412;SDS011;7805;49.554;7.632;2023-07-29T08:15:48;1.58;;;0.90;;
15412;SDS011;7805;49.554;7.632;2023-07-29T08:18:14;3.58;;;0.85;;
15412;SDS011;7805;49.554;7.632;2023-07-29T08:20:40;2.40;;;0.80;;
15412;SDS011;7805;49.554;7.632;2023-07-29T08:23:06;1.85;;;1.00;;
15412;SDS011;7805;49.554;7.632;2023-07-29T08:25:32;2.88;;;0.90;;
15412;SDS011;7805;49.554;7.632;2023-07-29T08:27:57;1.20;;;0.80;;
15412;SDS011;7805;49.554;7.632;2023-07-29T08:30:23;1.08;;;0.93;;
15412;SDS011;7805;49.554;7.632;2023-07-29T08:32:48;0.77;;;0.77;;
15412;SDS011;7805;49.554;7.632;2023-07-29T08:35:14;2.40;;;1.38;;
15412;SDS011;7805;49.554;7.632;2023-07-29T08:37:39;1.60;;;0.90;;
15412;SDS011;7805;49.554;7.632;2023-07-29T08:40:05;1.55;;;0.73;;
15412;SDS011;7805;49.554;7.632;2023-07-29T08:42:32;2.53;;;1.10;;
15412;SDS011;7805;49.554;7.632;2023-07-29T08:45:01;2.63;;;1.05;;
15412;SDS011;7805;49.554;7.632;2023-07-29T08:47:32;1.40;;;1.02;;
15412;SDS011;7805;49.554;7.632;2023-07-29T08:49:58;1.30;;;1.15;;
15412;SDS011;7805;49.554;7.632;2023-07-29T08:52:25;4.82;;;1.30;;
15412;SDS011;7805;49.554;7.632;2023-07-29T08:54:52;1.35;;;1.25;;
15412;SDS011;7805;49.554;7.632;2023-07-29T08:57:18;1.95;;;1.50;;
15412;SDS011;7805;49.554;7.632;2023-07-29T08:59:45;2.20;;;2.00;;
15412;SDS011;7805;49.554;7.632;2023-07-29T09:02:11;1.85;;;1.40;;
15412;SDS011;7805;49.554;7.632;2023-07-29T09:04:36;1.40;;;1.30;;
15412;SDS011;7805;49.554;7.632;2023-07-29T09:07:02;1.98;;;1.88;;
15412;SDS011;7805;49.554;7.632;2023-07-29T09:09:30;3.70;;;1.65;;
15412;SDS011;7805;49.554;7.632;2023-07-29T09:11:55;2.20;;;1.50;;
15412;SDS011;7805;49.554;7.632;2023-07-29T09:14:21;1.27;;;1.17;;
15412;SDS011;7805;49.554;7.632;2023-07-29T09:16:48;2.25;;;1.85;;
15412;SDS011;7805;49.554;7.632;2023-07-29T09:19:14;1.92;;;1.40;;
15412;SDS011;7805;49.554;7.632;2023-07-29T09:21:40;1.42;;;1.33;;
15412;SDS011;7805;49.554;7.632;2023-07-29T09:24:06;1.80;;;1.60;;
15412;SDS011;7805;49.554;7.632;2023-07-29T09:26:32;1.38;;;1.27;;
15412;SDS011;7805;49.554;7.632;2023-07-29T09:28:59;1.52;;;1.40;;
15412;SDS011;7805;49.554;7.632;2023-07-29T09:31:26;1.70;;;1.60;;
15412;SDS011;7805;49.554;7.632;2023-07-29T09:33:56;1.75;;;1.45;;
15412;SDS011;7805;49.554;7.632;2023-07-29T09:36:26;1.33;;;1.30;;
15412;SDS011;7805;49.554;7.632;2023-07-29T09:38:53;1.90;;;1.60;;
15412;SDS011;7805;49.554;7.632;2023-07-29T09:41:20;1.60;;;1.50;;
15412;SDS011;7805;49.554;7.632;2023-07-29T09:43:57;1.40;;;1.30;;
15412;SDS011;7805;49.554;7.632;2023-07-29T09:46:23;1.92;;;1.27;;
15412;SDS011;7805;49.554;7.632;2023-07-29T09:48:52;2.78;;;1.50;;
15412;SDS011;7805;49.554;7.632;2023-07-29T09:51:19;2.83;;;1.58;;
15412;SDS011;7805;49.554;7.632;2023-07-29T09:53:46;1.77;;;1.65;;
15412;SDS011;7805;49.554;7.632;2023-07-29T09:56:13;1.83;;;1.58;;
15412;SDS011;7805;49.554;7.632;2023-07-29T09:58:39;2.22;;;1.27;;
15412;SDS011;7805;49.554;7.632;2023-07-29T10:01:06;1.58;;;1.40;;
15412;SDS011;7805;49.554;7.632;2023-07-29T10:03:33;2.35;;;1.50;;
15412;SDS011;7805;49.554;7.632;2023-07-29T10:06:04;1.20;;;1.20;;
15412;SDS011;7805;49.554;7.632;2023-07-29T10:08:31;1.27;;;1.20;;
15412;SDS011;7805;49.554;7.632;2023-07-29T10:11:01;4.78;;;1.20;;
15412;SDS011;7805;49.554;7.632;2023-07-29T10:13:27;4.70;;;1.73;;
15412;SDS011;7805;49.554;7.632;2023-07-29T10:15:53;4.55;;;1.30;;
15412;SDS011;7805;49.554;7.632;2023-07-29T10:18:21;1.50;;;1.40;;
15412;SDS011;7805;49.554;7.632;2023-07-29T10:20:48;1.67;;;1.30;;
15412;SDS011;7805;49.554;7.632;2023-07-29T10:23:17;3.42;;;1.50;;
15412;SDS011;7805;49.554;7.632;2023-07-29T10:25:46;1.60;;;1.50;;
15412;SDS011;7805;49.554;7.632;2023-07-29T10:28:14;2.05;;;1.50;;
15412;SDS011;7805;49.554;7.632;2023-07-29T10:30:43;2.67;;;1.33;;
15412;SDS011;7805;49.554;7.632;2023-07-29T10:33:09;2.13;;;1.48;;
15412;SDS011;7805;49.554;7.632;2023-07-29T10:35:35;1.60;;;1.50;;
15412;SDS011;7805;49.554;7.632;2023-07-29T10:38:02;1.35;;;1.20;;
15412;SDS011;7805;49.554;7.632;2023-07-29T10:43:34;2.10;;;1.60;;
15412;SDS011;7805;49.554;7.632;2023-07-29T10:46:15;2.22;;;1.30;;
15412;SDS011;7805;49.554;7.632;2023-07-29T10:53:55;2.47;;;1.45;;
15412;SDS011;7805;49.554;7.632;2023-07-29T10:56:31;1.30;;;1.20;;
15412;SDS011;7805;49.554;7.632;2023-07-29T11:01:45;1.30;;;1.23;;
15412;SDS011;7805;49.554;7.632;2023-07-29T11:04:23;2.95;;;2.75;;
15412;SDS011;7805;49.554;7.632;2023-07-29T11:09:42;3.42;;;1.13;;
15412;SDS011;7805;49.554;7.632;2023-07-29T11:15:13;1.38;;;1.27;;
15412;SDS011;7805;49.554;7.632;2023-07-29T11:17:45;2.78;;;1.27;;
15412;SDS011;7805;49.554;7.632;2023-07-29T11:20:12;0.98;;;0.98;;
15412;SDS011;7805;49.554;7.632;2023-07-29T11:22:39;1.27;;;1.17;;
15412;SDS011;7805;49.554;7.632;2023-07-29T11:25:06;1.60;;;1.40;;
15412;SDS011;7805;49.554;7.632;2023-07-29T11:27:34;2.25;;;1.05;;
15412;SDS011;7805;49.554;7.632;2023-07-29T11:30:01;1.27;;;1.17;;
15412;SDS011;7805;49.554;7.632;2023-07-29T11:32:30;1.15;;;1.10;;
15412;SDS011;7805;49.554;7.632;2023-07-29T11:34:56;1.85;;;1.15;;
15412;SDS011;7805;49.554;7.632;2023-07-29T11:37:25;1.10;;;1.10;;
15412;SDS011;7805;49.554;7.632;2023-07-29T11:39:50;1.15;;;1.00;;
15412;SDS011;7805;49.554;7.632;2023-07-29T11:42:16;0.90;;;0.90;;
15412;SDS011;7805;49.554;7.632;2023-07-29T11:44:41;1.15;;;1.05;;
15412;SDS011;7805;49.554;7.632;2023-07-29T11:47:08;1.27;;;1.17;;
15412;SDS011;7805;49.554;7.632;2023-07-29T11:49:34;1.55;;;0.90;;
15412;SDS011;7805;49.554;7.632;2023-07-29T11:52:00;0.90;;;0.90;;
15412;SDS011;7805;49.554;7.632;2023-07-29T11:54:27;1.27;;;1.00;;
15412;SDS011;7805;49.554;7.632;2023-07-29T11:56:53;0.80;;;0.80;;
15412;SDS011;7805;49.554;7.632;2023-07-29T11:59:20;1.83;;;1.00;;
15412;SDS011;7805;49.554;7.632;2023-07-29T12:01:46;1.00;;;1.00;;
15412;SDS011;7805;49.554;7.632;2023-07-29T12:04:12;2.38;;;0.90;;
15412;SDS011;7805;49.554;7.632;2023-07-29T12:06:38;1.88;;;1.00;;
15412;SDS011;7805;49.554;7.632;2023-07-29T12:09:04;1.05;;;1.05;;
15412;SDS011;7805;49.554;7.632;2023-07-29T12:11:30;1.33;;;1.23;;
15412;SDS011;7805;49.554;7.632;2023-07-29T12:13:57;1.10;;;1.00;;
15412;SDS011;7805;49.554;7.632;2023-07-29T12:16:24;0.88;;;0.88;;
15412;SDS011;7805;49.554;7.632;2023-07-29T12:18:50;1.60;;;1.05;;
15412;SDS011;7805;49.554;7.632;2023-07-29T12:21:15;2.00;;;1.20;;
15412;SDS011;7805;49.554;7.632;2023-07-29T12:23:42;1.30;;;1.20;;
15412;SDS011;7805;49.554;7.632;2023-07-29T12:26:08;2.30;;;1.17;;
15412;SDS011;7805;49.554;7.632;2023-07-29T12:28:33;1.00;;;1.00;;
15412;SDS011;7805;49.554;7.632;2023-07-29T12:30:59;1.20;;;1.20;;
15412;SDS011;7805;49.554;7.632;2023-07-29T12:33:34;1.33;;;1.25;;
15412;SDS011;7805;49.554;7.632;2023-07-29T12:36:04;1.80;;;1.20;;
15412;SDS011;7805;49.554;7.632;2023-07-29T12:38:30;1.23;;;1.15;;
15412;SDS011;7805;49.554;7.632;2023-07-29T12:40:58;1.55;;;1.10;;
15412;SDS011;7805;49.554;7.632;2023-07-29T12:43:24;1.25;;;1.10;;
15412;SDS011;7805;49.554;7.632;2023-07-29T12:45:51;1.30;;;1.30;;
15412;SDS011;7805;49.554;7.632;2023-07-29T12:48:17;5.18;;;1.65;;
15412;SDS011;7805;49.554;7.632;2023-07-29T12:50:43;1.27;;;1.15;;
15412;SDS011;7805;49.554;7.632;2023-07-29T12:53:08;1.10;;;1.00;;
15412;SDS011;7805;49.554;7.632;2023-07-29T12:55:38;3.30;;;1.30;;
15412;SDS011;7805;49.554;7.632;2023-07-29T12:58:03;2.25;;;1.20;;
15412;SDS011;7805;49.554;7.632;2023-07-29T13:00:29;1.38;;;1.10;;
15412;SDS011;7805;49.554;7.632;2023-07-29T13:02:55;1.75;;;1.65;;
15412;SDS011;7805;49.554;7.632;2023-07-29T13:05:20;1.10;;;1.00;;
15412;SDS011;7805;49.554;7.632;2023-07-29T13:07:46;1.95;;;1.08;;
15412;SDS011;7805;49.554;7.632;2023-07-29T13:10:12;1.38;;;1.30;;
15412;SDS011;7805;49.554;7.632;2023-07-29T13:12:38;1.42;;;1.33;;
15412;SDS011;7805;49.554;7.632;2023-07-29T13:15:04;0.98;;;0.95;;
15412;SDS011;7805;49.554;7.632;2023-07-29T13:17:30;1.38;;;1.25;;
15412;SDS011;7805;49.554;7.632;2023-07-29T13:19:56;1.42;;;1.35;;
15412;SDS011;7805;49.554;7.632;2023-07-29T13:22:21;4.07;;;1.38;;
15412;SDS011;7805;49.554;7.632;2023-07-29T13:24:47;1.50;;;1.40;;
15412;SDS011;7805;49.554;7.632;2023-07-29T13:27:13;4.22;;;1.70;;
15412;SDS011;7805;49.554;7.632;2023-07-29T13:29:39;1.60;;;1.50;;
15412;SDS011;7805;49.554;7.632;2023-07-29T13:32:05;1.50;;;1.40;;
15412;SDS011;7805;49.554;7.632;2023-07-29T13:34:31;4.45;;;1.38;;
15412;SDS011;7805;49.554;7.632;2023-07-29T13:36:57;1.63;;;1.20;;
15412;SDS011;7805;49.554;7.632;2023-07-29T13:39:22;1.48;;;1.40;;
15412;SDS011;7805;49.554;7.632;2023-07-29T13:41:48;1.38;;;1.17;;
15412;SDS011;7805;49.554;7.632;2023-07-29T13:44:13;1.52;;;1.42;;
15412;SDS011;7805;49.554;7.632;2023-07-29T13:46:39;2.00;;;1.80;;
15412;SDS011;7805;49.554;7.632;2023-07-29T13:49:05;2.10;;;1.27;;
15412;SDS011;7805;49.554;7.632;2023-07-29T13:51:30;1.40;;;1.20;;
15412;SDS011;7805;49.554;7.632;2023-07-29T13:53:56;1.60;;;1.50;;
15412;SDS011;7805;49.554;7.632;2023-07-29T13:56:21;2.42;;;1.90;;
15412;SDS011;7805;49.554;7.632;2023-07-29T13:58:47;1.40;;;1.30;;
15412;SDS011;7805;49.554;7.632;2023-07-29T14:01:13;1.80;;;1.30;;
15412;SDS011;7805;49.554;7.632;2023-07-29T14:03:38;1.65;;;1.38;;
15412;SDS011;7805;49.554;7.632;2023-07-29T14:06:04;1.27;;;1.27;;
15412;SDS011;7805;49.554;7.632;2023-07-29T14:08:29;1.40;;;1.10;;
15412;SDS011;7805;49.554;7.632;2023-07-29T14:10:55;1.27;;;1.17;;
15412;SDS011;7805;49.554;7.632;2023-07-29T14:13:21;1.10;;;1.10;;
15412;SDS011;7805;49.554;7.632;2023-07-29T14:15:46;1.90;;;1.38;;
15412;SDS011;7805;49.554;7.632;2023-07-29T14:18:12;1.23;;;1.13;;
15412;SDS011;7805;49.554;7.632;2023-07-29T14:20:38;1.25;;;1.25;;
15412;SDS011;7805;49.554;7.632;2023-07-29T14:23:04;1.70;;;1.50;;
15412;SDS011;7805;49.554;7.632;2023-07-29T14:25:29;1.27;;;1.20;;
15412;SDS011;7805;49.554;7.632;2023-07-29T14:27:55;2.80;;;1.80;;
15412;SDS011;7805;49.554;7.632;2023-07-29T14:30:20;1.48;;;1.48;;
15412;SDS011;7805;49.554;7.632;2023-07-29T14:32:46;2.33;;;1.40;;
15412;SDS011;7805;49.554;7.632;2023-07-29T14:35:11;1.35;;;1.25;;
15412;SDS011;7805;49.554;7.632;2023-07-29T14:37:37;1.55;;;1.48;;
15412;SDS011;7805;49.554;7.632;2023-07-29T14:40:03;2.22;;;1.63;;
15412;SDS011;7805;49.554;7.632;2023-07-29T14:42:30;1.95;;;1.25;;
15412;SDS011;7805;49.554;7.632;2023-07-29T14:44:55;1.55;;;1.45;;
15412;SDS011;7805;49.554;7.632;2023-07-29T14:47:21;1.30;;;1.30;;
15412;SDS011;7805;49.554;7.632;2023-07-29T14:49:46;1.70;;;1.60;;
15412;SDS011;7805;49.554;7.632;2023-07-29T14:52:12;1.80;;;1.30;;
15412;SDS011;7805;49.554;7.632;2023-07-29T14:54:38;1.77;;;1.65;;
15412;SDS011;7805;49.554;7.632;2023-07-29T14:57:05;1.33;;;1.33;;
15412;SDS011;7805;49.554;7.632;2023-07-29T14:59:31;2.45;;;1.60;;
15412;SDS011;7805;49.554;7.632;2023-07-29T15:01:57;1.70;;;1.60;;
15412;SDS011;7805;49.554;7.632;2023-07-29T15:04:22;1.60;;;1.50;;
15412;SDS011;7805;49.554;7.632;2023-07-29T15:06:48;3.45;;;1.60;;
15412;SDS011;7805;49.554;7.632;2023-07-29T15:09:13;1.60;;;1.50;;
15412;SDS011;7805;49.554;7.632;2023-07-29T15:11:39;1.67;;;1.58;;
15412;SDS011;7805;49.554;7.632;2023-07-29T15:14:06;3.35;;;1.33;;
15412;SDS011;7805;49.554;7.632;2023-07-29T15:16:31;1.30;;;1.30;;